createdAt,value
2019-02-26T00:02:50.618Z,5.43
2019-02-26T00:06:55.793Z,6.00
2019-02-26T00:11:03.819Z,4.83
2019-02-26T00:15:12.488Z,5.03
2019-02-26T00:19:18.172Z,4.87
2019-02-26T00:23:25.582Z,5.13
2019-02-26T00:27:33.001Z,4.53
2019-02-26T00:31:38.660Z,4.77
2019-02-26T00:35:46.085Z,5.97
2019-02-26T00:39:53.982Z,5.03
2019-02-26T00:43:59.945Z,6.07
2019-02-26T00:48:06.729Z,7.13
2019-02-26T00:52:13.384Z,7.33
2019-02-26T00:56:19.814Z,3.93
2019-02-26T01:00:26.810Z,4.97
2019-02-26T01:04:32.897Z,6.33
2019-02-26T01:08:40.271Z,6.50
2019-02-26T01:12:46.261Z,7.17
2019-02-26T01:16:51.956Z,5.30
2019-02-26T01:20:59.692Z,6.20
2019-02-26T01:25:07.169Z,4.23
2019-02-26T01:29:16.064Z,4.90
2019-02-26T01:33:22.186Z,7.07
2019-02-26T01:37:28.220Z,6.53
2019-02-26T01:41:35.181Z,6.93
2019-02-26T01:45:40.883Z,5.27
2019-02-26T01:49:48.849Z,4.10
2019-02-26T01:53:54.289Z,5.67
2019-02-26T01:58:00.045Z,4.53
2019-02-26T02:02:05.728Z,5.93
2019-02-26T02:06:13.588Z,3.87
2019-02-26T02:10:18.962Z,5.80
2019-02-26T02:14:24.630Z,4.10
2019-02-26T02:18:30.337Z,5.47
2019-02-26T02:22:37.679Z,7.03
2019-02-26T02:26:47.524Z,4.60
2019-02-26T02:30:51.926Z,5.43
2019-02-26T02:35:00.609Z,5.10
2019-02-26T02:39:10.384Z,5.00
2019-02-26T02:43:16.097Z,3.93
2019-02-26T02:47:21.626Z,7.23
2019-02-26T02:51:31.192Z,4.53
2019-02-26T02:55:37.766Z,5.90
2019-02-26T02:59:43.221Z,5.17
2019-02-26T03:03:50.525Z,4.67
2019-02-26T03:07:56.616Z,6.83
2019-02-26T03:12:02.286Z,3.53
2019-02-26T03:16:08.045Z,3.83
2019-02-26T03:20:15.829Z,5.03
2019-02-26T03:24:24.979Z,6.37
2019-02-26T03:28:28.964Z,5.30
2019-02-26T03:32:36.607Z,5.07
2019-02-26T03:36:43.597Z,4.63
2019-02-26T03:40:51.885Z,4.50
2019-02-26T03:44:56.877Z,5.97
2019-02-26T03:49:03.598Z,5.77
2019-02-26T03:53:10.086Z,6.93
2019-02-26T03:57:16.842Z,6.50
2019-02-26T04:01:23.463Z,4.43
2019-02-26T04:05:29.158Z,5.77
2019-02-26T04:09:39.126Z,4.60
2019-02-26T04:13:43.307Z,4.63
2019-02-26T04:17:49.645Z,5.17
2019-02-26T04:22:27.562Z,4.97
2019-02-26T04:26:37.843Z,4.58
2019-02-26T04:30:56.779Z,5.37
2019-02-26T04:35:05.946Z,5.33
2019-02-26T04:39:53.764Z,4.07
2019-02-26T04:44:12.655Z,3.63
2019-02-26T04:48:26.978Z,4.45
2019-02-26T04:52:32.403Z,7.03
2019-02-26T04:56:40.151Z,4.80
2019-02-26T05:00:46.212Z,4.90
2019-02-26T05:04:52.870Z,5.63
2019-02-26T05:09:00.131Z,4.93
2019-02-26T05:13:09.715Z,6.87
2019-02-26T05:17:15.316Z,7.40
2019-02-26T05:21:21.006Z,4.87
2019-02-26T05:25:26.690Z,8.40
2019-02-26T05:29:32.360Z,5.80
2019-02-26T05:33:38.040Z,6.13
2019-02-26T05:37:43.836Z,7.80
2019-02-26T05:41:52.269Z,6.07
2019-02-26T05:46:00.443Z,7.87
2019-02-26T05:50:09.412Z,7.77
2019-02-26T05:54:15.322Z,6.33
2019-02-26T05:58:21.598Z,5.17
2019-02-26T06:02:27.302Z,5.97
2019-02-26T06:06:32.983Z,7.77
2019-02-26T06:10:38.665Z,9.20
2019-02-26T06:14:44.376Z,7.43
2019-02-26T06:18:51.742Z,7.43
2019-02-26T06:22:57.414Z,6.93
2019-02-26T06:27:03.176Z,8.00
2019-02-26T06:31:11.545Z,8.00
2019-02-26T06:35:19.287Z,7.92
2019-02-26T06:39:26.850Z,8.87
2019-02-26T06:43:35.463Z,6.83
2019-02-26T06:47:40.376Z,7.73
2019-02-26T06:51:47.438Z,7.33
2019-02-26T06:55:53.468Z,6.17
2019-02-26T07:00:01.139Z,6.47
2019-02-26T07:04:06.894Z,8.63
2019-02-26T07:08:13.905Z,7.40
2019-02-26T07:12:21.708Z,6.47
2019-02-26T07:16:27.004Z,5.63
2019-02-26T07:20:34.335Z,16.87
2019-02-26T07:24:41.776Z,8.53
2019-02-26T07:28:48.747Z,13.57
2019-02-26T07:32:56.025Z,9.30
2019-02-26T07:37:01.723Z,9.33
2019-02-26T07:41:08.485Z,9.20
2019-02-26T07:45:17.861Z,8.17
2019-02-26T07:49:22.071Z,10.40
2019-02-26T07:53:27.781Z,18.30
2019-02-26T07:57:33.462Z,13.60
2019-02-26T08:01:39.886Z,9.37
2019-02-26T08:05:46.618Z,15.13
2019-02-26T08:09:52.309Z,15.00
2019-02-26T08:13:59.265Z,11.67
2019-02-26T08:18:05.700Z,11.88
2019-02-26T08:22:11.415Z,10.88
2019-02-26T08:26:18.112Z,8.93
2019-02-26T08:30:26.124Z,11.73
2019-02-26T08:34:31.969Z,12.47
2019-02-26T08:38:37.671Z,12.37
2019-02-26T08:42:43.364Z,9.37
2019-02-26T08:46:49.141Z,10.57
2019-02-26T08:50:55.824Z,7.93
2019-02-26T08:55:02.629Z,10.47
2019-02-26T08:59:09.293Z,15.10
2019-02-26T09:03:15.656Z,11.77
2019-02-26T09:07:23.820Z,12.33
2019-02-26T09:11:31.831Z,12.97
2019-02-26T09:15:40.368Z,14.50
2019-02-26T09:19:45.460Z,13.93
2019-02-26T09:23:54.919Z,14.03
2019-02-26T09:27:58.552Z,15.20
2019-02-26T09:32:06.726Z,12.70
2019-02-26T09:36:14.928Z,18.07
2019-02-26T09:40:23.535Z,11.08
2019-02-26T09:44:29.269Z,11.80
2019-02-26T09:48:36.535Z,12.73
2019-02-26T09:52:42.937Z,10.90
2019-02-26T09:56:48.618Z,12.67
2019-02-26T10:00:54.333Z,20.60
2019-02-26T10:05:00.214Z,13.13
2019-02-26T10:09:10.326Z,13.17
2019-02-26T10:13:15.925Z,14.97
2019-02-26T10:17:22.173Z,14.47
2019-02-26T10:21:27.868Z,14.23
2019-02-26T10:25:34.999Z,12.37
2019-02-26T10:29:42.982Z,13.90
2019-02-26T10:33:50.764Z,19.13
2019-02-26T10:38:03.547Z,19.17
2019-02-26T10:42:07.787Z,11.73
2019-02-26T10:46:13.509Z,15.93
2019-02-26T10:50:22.974Z,12.80
2019-02-26T10:54:34.595Z,15.40
2019-02-26T10:58:38.119Z,15.37
2019-02-26T11:03:06.442Z,13.10
2019-02-26T11:07:12.410Z,14.53
2019-02-26T11:11:19.125Z,11.57
2019-02-26T11:15:26.989Z,14.00
2019-02-26T11:19:35.666Z,12.10
2019-02-26T11:23:41.615Z,9.55
2019-02-26T11:27:48.522Z,11.30
2019-02-26T11:31:54.337Z,11.43
2019-02-26T11:36:00.085Z,11.85
2019-02-26T11:40:10.369Z,10.10
2019-02-26T11:44:20.140Z,10.23
2019-02-26T11:48:25.755Z,10.40
2019-02-26T11:52:30.930Z,7.53
2019-02-26T11:56:38.523Z,11.40
2019-02-26T12:00:50.560Z,8.40
2019-02-26T12:04:57.448Z,6.87
2019-02-26T12:09:06.069Z,7.03
2019-02-26T12:13:14.638Z,11.20
2019-02-26T12:17:19.980Z,12.07
2019-02-26T12:21:27.545Z,8.80
2019-02-26T12:25:33.070Z,8.53
2019-02-26T12:29:40.170Z,7.33
2019-02-26T12:33:46.150Z,7.87
2019-02-26T12:37:53.854Z,5.23
2019-02-26T12:41:59.326Z,6.33
2019-02-26T12:46:08.227Z,7.50
2019-02-26T12:50:19.069Z,5.97
2019-02-26T12:54:26.680Z,7.90
2019-02-26T12:58:32.210Z,6.03
2019-02-26T13:02:39.884Z,6.73
2019-02-26T13:06:48.258Z,5.13
2019-02-26T13:10:57.757Z,9.27
2019-02-26T13:15:04.876Z,7.63
2019-02-26T13:19:08.692Z,8.40
2019-02-26T13:23:20.855Z,9.83
2019-02-26T13:27:21.792Z,6.87
2019-02-26T13:31:27.481Z,8.10
2019-02-26T13:35:33.177Z,7.53
2019-02-26T13:39:41.549Z,10.83
2019-02-26T13:43:46.368Z,7.20
2019-02-26T13:47:52.388Z,6.33
2019-02-26T13:51:58.087Z,6.30
2019-02-26T13:56:03.860Z,11.73
2019-02-26T14:00:13.736Z,8.57
2019-02-26T14:04:19.426Z,8.40
2019-02-26T14:08:25.117Z,6.20
2019-02-26T14:12:30.799Z,6.83
2019-02-26T14:16:36.498Z,8.47
2019-02-26T14:20:42.216Z,6.40
2019-02-26T14:24:47.958Z,7.85
2019-02-26T14:28:53.644Z,8.13
2019-02-26T14:32:59.512Z,6.90
2019-02-26T14:37:05.225Z,8.30
2019-02-26T14:41:10.920Z,6.07
2019-02-26T14:45:27.840Z,3.83
2019-02-26T14:49:33.516Z,7.43
2019-02-26T14:53:39.212Z,4.80
2019-02-26T14:57:44.915Z,5.30
2019-02-26T15:01:50.667Z,8.40
2019-02-26T15:05:56.359Z,4.93
2019-02-26T15:10:02.340Z,11.53
2019-02-26T15:14:09.006Z,6.23
2019-02-26T15:18:14.700Z,9.93
2019-02-26T15:22:20.398Z,5.90
2019-02-26T15:26:26.106Z,5.33
2019-02-26T15:30:31.801Z,4.37
2019-02-26T15:34:37.488Z,5.20
2019-02-26T15:38:43.178Z,4.73
2019-02-26T15:42:52.455Z,5.53
2019-02-26T15:46:56.338Z,5.67
2019-02-26T15:51:02.040Z,7.90
2019-02-26T15:55:12.174Z,5.07
2019-02-26T15:59:17.880Z,5.10
2019-02-26T16:03:24.640Z,6.87
2019-02-26T16:07:30.408Z,7.70
2019-02-26T16:11:36.197Z,8.67
2019-02-26T16:15:41.953Z,8.67
2019-02-26T16:19:47.680Z,17.27
2019-02-26T16:23:54.334Z,7.80
2019-02-26T16:28:00.035Z,8.27
2019-02-26T16:32:05.778Z,8.77
2019-02-26T16:36:19.111Z,8.33
2019-02-26T16:40:24.964Z,11.60
2019-02-26T16:44:30.742Z,16.37
2019-02-26T16:48:36.565Z,10.00
2019-02-26T16:52:42.403Z,9.27
2019-02-26T16:57:19.157Z,10.03
2019-02-26T17:01:24.947Z,11.57
2019-02-26T17:05:30.783Z,10.93
2019-02-26T17:09:36.536Z,10.00
2019-02-26T17:13:43.429Z,9.97
2019-02-26T17:17:49.956Z,9.43
2019-02-26T17:26:22.683Z,13.47
2019-02-26T17:30:28.611Z,15.73
2019-02-26T17:34:34.302Z,16.90
2019-02-26T17:38:40.134Z,13.97
2019-02-26T17:42:46.215Z,16.70
2019-02-26T17:46:53.615Z,12.23
2019-02-26T17:50:59.319Z,9.30
2019-02-26T17:55:09.504Z,9.63
2019-02-26T17:59:18.819Z,5.87
2019-02-26T18:03:25.721Z,8.43
2019-02-26T18:07:31.502Z,8.07
2019-02-26T18:11:37.183Z,9.97
2019-02-26T18:15:42.927Z,9.17
2019-02-26T18:19:49.653Z,8.30
2019-02-26T18:24:16.777Z,7.93
2019-02-26T18:28:23.568Z,9.57
2019-02-26T18:33:06.171Z,9.43
2019-02-26T18:37:11.898Z,9.33
2019-02-26T18:41:17.608Z,10.10
2019-02-26T18:45:29.288Z,9.53
2019-02-26T18:49:34.979Z,8.40
2019-02-26T18:53:40.740Z,8.50
2019-02-26T18:57:46.513Z,7.90
2019-02-26T19:01:52.221Z,8.60
2019-02-26T19:05:57.934Z,8.67
2019-02-26T19:10:04.599Z,10.67
2019-02-26T19:14:10.451Z,7.40
2019-02-26T19:18:16.141Z,9.13
2019-02-26T19:22:21.840Z,8.60
2019-02-26T19:26:27.926Z,7.70
2019-02-26T19:30:36.707Z,7.97
2019-02-26T19:34:41.018Z,6.93
2019-02-26T19:38:46.804Z,7.13
2019-02-26T19:42:53.343Z,8.00
2019-02-26T19:47:00.867Z,6.83
2019-02-26T19:51:06.684Z,6.87
2019-02-26T19:55:19.747Z,9.07
2019-02-26T19:59:26.961Z,9.43
2019-02-26T20:03:39.880Z,9.27
2019-02-26T20:07:41.425Z,7.20
2019-02-26T20:11:47.177Z,8.80
2019-02-26T20:15:54.848Z,6.30
2019-02-26T20:20:00.319Z,9.70
2019-02-26T20:24:06.069Z,8.93
2019-02-26T20:28:11.908Z,7.43
2019-02-26T20:32:17.628Z,8.17
2019-02-26T20:36:24.286Z,9.53
2019-02-26T20:40:30.001Z,9.70
2019-02-26T20:44:37.240Z,13.50
2019-02-26T20:48:42.993Z,11.10
2019-02-26T21:10:03.868Z,7.67
2019-02-26T21:15:16.899Z,9.73
2019-02-26T21:25:18.358Z,7.67
2019-02-26T21:30:21.411Z,9.23
2019-02-26T21:40:19.363Z,9.60
2019-02-26T21:45:19.434Z,7.53
2019-02-26T21:54:18.561Z,8.27
2019-02-26T21:59:18.033Z,9.87
2019-02-26T22:04:17.907Z,11.63
2019-02-26T22:09:17.968Z,8.43
2019-02-26T22:13:23.686Z,9.17
2019-02-26T22:18:17.451Z,9.80
2019-02-26T22:22:25.990Z,10.33
2019-02-26T22:27:18.683Z,13.57
2019-02-26T22:31:24.377Z,8.67
2019-02-26T22:35:30.149Z,8.80
2019-02-26T22:39:35.868Z,11.13
2019-02-26T22:43:44.797Z,7.50
2019-02-26T22:47:50.600Z,8.13
2019-02-26T22:51:58.478Z,8.17
2019-02-26T22:56:03.804Z,7.87
2019-02-26T23:00:49.697Z,7.70
2019-02-26T23:04:57.159Z,7.70
2019-02-26T23:09:03.800Z,7.55
2019-02-26T23:13:11.428Z,10.07
2019-02-26T23:17:17.414Z,7.47
2019-02-26T23:21:24.026Z,9.33
2019-02-26T23:25:30.405Z,8.30
2019-02-26T23:29:38.021Z,7.90
2019-02-26T23:33:47.918Z,7.07
2019-02-26T23:37:51.308Z,8.93
2019-02-26T23:41:57.014Z,8.30
2019-02-26T23:46:02.837Z,8.40
2019-02-26T23:50:10.575Z,10.83
2019-02-26T23:54:16.337Z,11.40
2019-02-26T23:58:22.042Z,8.73
